sensor_id;sensor_type;location;lat;lon;timestamp;pressure;altitude;pressure_sealevel;temperature;humidity
59337;BME280;45115;52.002;4.686;2023-04-08T00:01:58;102415.63;;;8.61;93.58
59337;BME280;45115;52.002;4.686;2023-04-08T00:04:25;102419.34;;;8.60;93.95
59337;BME280;45115;52.002;4.686;2023-04-08T00:06:51;102415.03;;;8.56;94.14
59337;BME280;45115;52.002;4.686;2023-04-08T00:09:18;102410.03;;;8.49;94.45
59337;BME280;45115;52.002;4.686;2023-04-08T00:11:47;102413.28;;;8.55;94.42
59337;BME280;45115;52.002;4.686;2023-04-08T00:14:14;102415.03;;;8.56;94.91
59337;BME280;45115;52.002;4.686;2023-04-08T00:16:41;102413.75;;;8.48;95.00
59337;BME280;45115;52.002;4.686;2023-04-08T00:19:09;102414.63;;;8.48;95.24
59337;BME280;45115;52.002;4.686;2023-04-08T00:21:36;102412.91;;;8.61;94.39
59337;BME280;45115;52.002;4.686;2023-04-08T00:24:03;102412.50;;;8.53;94.63
59337;BME280;45115;52.002;4.686;2023-04-08T00:26:31;102411.66;;;8.67;93.72
59337;BME280;45115;52.002;4.686;2023-04-08T00:28:59;102414.72;;;8.61;93.85
59337;BME280;45115;52.002;4.686;2023-04-08T00:31:26;102405.94;;;8.56;94.68
59337;BME280;45115;52.002;4.686;2023-04-08T00:33:52;102413.44;;;8.52;95.09
59337;BME280;45115;52.002;4.686;2023-04-08T00:36:19;102421.50;;;8.40;95.95
59337;BME280;45115;52.002;4.686;2023-04-08T00:38:46;102417.22;;;8.36;96.47
59337;BME280;45115;52.002;4.686;2023-04-08T00:41:13;102423.53;;;8.36;96.67
59337;BME280;45115;52.002;4.686;2023-04-08T00:43:40;102421.25;;;8.44;96.84
59337;BME280;45115;52.002;4.686;2023-04-08T00:46:08;102418.00;;;8.38;96.95
59337;BME280;45115;52.002;4.686;2023-04-08T00:48:35;102426.28;;;8.36;97.22
59337;BME280;45115;52.002;4.686;2023-04-08T00:51:01;102422.00;;;8.32;97.27
59337;BME280;45115;52.002;4.686;2023-04-08T00:53:29;102420.81;;;8.36;97.28
59337;BME280;45115;52.002;4.686;2023-04-08T00:55:56;102427.06;;;8.38;97.18
59337;BME280;45115;52.002;4.686;2023-04-08T00:58:26;102415.09;;;8.41;96.68
59337;BME280;45115;52.002;4.686;2023-04-08T01:00:57;102429.19;;;8.33;97.01
59337;BME280;45115;52.002;4.686;2023-04-08T01:03:33;102425.41;;;8.36;97.32
59337;BME280;45115;52.002;4.686;2023-04-08T01:06:10;102423.13;;;8.28;97.05
59337;BME280;45115;52.002;4.686;2023-04-08T01:08:39;102424.19;;;8.26;97.64
59337;BME280;45115;52.002;4.686;2023-04-08T01:11:10;102420.69;;;8.24;97.99
59337;BME280;45115;52.002;4.686;2023-04-08T01:13:39;102423.63;;;8.35;97.46
59337;BME280;45115;52.002;4.686;2023-04-08T01:16:09;102417.72;;;8.42;96.77
59337;BME280;45115;52.002;4.686;2023-04-08T01:18:40;102429.78;;;8.38;96.38
59337;BME280;45115;52.002;4.686;2023-04-08T01:21:09;102435.81;;;8.29;97.65
59337;BME280;45115;52.002;4.686;2023-04-08T01:23:45;102431.69;;;8.22;97.82
59337;BME280;45115;52.002;4.686;2023-04-08T01:26:22;102434.56;;;8.19;98.16
59337;BME280;45115;52.002;4.686;2023-04-08T01:28:52;102429.91;;;8.21;98.08
59337;BME280;45115;52.002;4.686;2023-04-08T01:31:23;102434.47;;;8.21;98.21
59337;BME280;45115;52.002;4.686;2023-04-08T01:33:51;102439.72;;;8.25;98.12
59337;BME280;45115;52.002;4.686;2023-04-08T01:36:21;102432.53;;;8.23;98.05
59337;BME280;45115;52.002;4.686;2023-04-08T01:38:49;102434.41;;;8.22;98.38
59337;BME280;45115;52.002;4.686;2023-04-08T01:41:17;102432.22;;;8.29;98.03
59337;BME280;45115;52.002;4.686;2023-04-08T01:43:48;102431.31;;;8.28;98.03
59337;BME280;45115;52.002;4.686;2023-04-08T01:46:16;102436.88;;;8.27;98.01
59337;BME280;45115;52.002;4.686;2023-04-08T01:48:43;102436.25;;;8.22;98.25
59337;BME280;45115;52.002;4.686;2023-04-08T01:51:11;102438.28;;;8.34;98.24
59337;BME280;45115;52.002;4.686;2023-04-08T01:53:38;102443.44;;;8.23;98.24
59337;BME280;45115;52.002;4.686;2023-04-08T01:56:10;102437.69;;;8.29;97.85
59337;BME280;45115;52.002;4.686;2023-04-08T01:58:42;102442.53;;;8.24;98.09
59337;BME280;45115;52.002;4.686;2023-04-08T02:01:17;102443.03;;;8.30;98.07
59337;BME280;45115;52.002;4.686;2023-04-08T02:03:46;102431.22;;;8.30;97.81
59337;BME280;45115;52.002;4.686;2023-04-08T02:06:13;102444.78;;;8.31;98.17
59337;BME280;45115;52.002;4.686;2023-04-08T02:08:40;102443.94;;;8.31;97.79
59337;BME280;45115;52.002;4.686;2023-04-08T02:11:07;102436.97;;;8.25;97.75
59337;BME280;45115;52.002;4.686;2023-04-08T02:13:34;102439.50;;;8.13;98.26
59337;BME280;45115;52.002;4.686;2023-04-08T02:16:03;102443.56;;;8.06;98.00
59337;BME280;45115;52.002;4.686;2023-04-08T02:18:35;102440.25;;;8.01;98.09
59337;BME280;45115;52.002;4.686;2023-04-08T02:21:08;102448.44;;;8.01;98.45
59337;BME280;45115;52.002;4.686;2023-04-08T02:23:38;102444.91;;;7.99;98.34
59337;BME280;45115;52.002;4.686;2023-04-08T02:26:07;102444.38;;;8.08;98.75
59337;BME280;45115;52.002;4.686;2023-04-08T02:28:38;102450.88;;;8.05;98.45
59337;BME280;45115;52.002;4.686;2023-04-08T02:31:08;102444.91;;;7.99;98.35
59337;BME280;45115;52.002;4.686;2023-04-08T02:33:40;102448.16;;;8.05;98.61
59337;BME280;45115;52.002;4.686;2023-04-08T02:36:08;102450.63;;;8.25;97.89
59337;BME280;45115;52.002;4.686;2023-04-08T02:38:36;102447.28;;;8.05;98.19
59337;BME280;45115;52.002;4.686;2023-04-08T02:41:03;102444.00;;;7.98;98.48
59337;BME280;45115;52.002;4.686;2023-04-08T02:43:32;102448.34;;;8.02;98.05
59337;BME280;45115;52.002;4.686;2023-04-08T02:46:04;102452.81;;;8.03;97.97
59337;BME280;45115;52.002;4.686;2023-04-08T02:48:31;102447.38;;;7.87;98.07
59337;BME280;45115;52.002;4.686;2023-04-08T02:51:02;102451.41;;;7.80;98.61
59337;BME280;45115;52.002;4.686;2023-04-08T02:53:29;102452.03;;;7.85;98.61
59337;BME280;45115;52.002;4.686;2023-04-08T02:55:56;102456.25;;;7.91;98.28
59337;BME280;45115;52.002;4.686;2023-04-08T02:58:22;102458.81;;;7.94;97.97
59337;BME280;45115;52.002;4.686;2023-04-08T03:00:49;102464.53;;;7.74;98.15
59337;BME280;45115;52.002;4.686;2023-04-08T03:03:16;102460.81;;;7.75;98.61
59337;BME280;45115;52.002;4.686;2023-04-08T03:05:42;102464.34;;;7.77;98.81
59337;BME280;45115;52.002;4.686;2023-04-08T03:08:10;102464.25;;;7.78;99.14
59337;BME280;45115;52.002;4.686;2023-04-08T03:10:37;102466.47;;;7.87;98.63
59337;BME280;45115;52.002;4.686;2023-04-08T03:13:04;102471.81;;;7.89;98.38
59337;BME280;45115;52.002;4.686;2023-04-08T03:15:30;102472.19;;;7.83;98.46
59337;BME280;45115;52.002;4.686;2023-04-08T03:17:57;102469.56;;;7.81;98.37
59337;BME280;45115;52.002;4.686;2023-04-08T03:20:24;102470.16;;;7.71;98.61
59337;BME280;45115;52.002;4.686;2023-04-08T03:22:50;102475.44;;;7.74;98.19
59337;BME280;45115;52.002;4.686;2023-04-08T03:25:18;102476.44;;;7.73;97.88
59337;BME280;45115;52.002;4.686;2023-04-08T03:27:45;102476.66;;;7.53;98.45
59337;BME280;45115;52.002;4.686;2023-04-08T03:30:16;102475.41;;;7.43;99.01
59337;BME280;45115;52.002;4.686;2023-04-08T03:32:42;102470.50;;;7.49;98.69
59337;BME280;45115;52.002;4.686;2023-04-08T03:35:09;102475.81;;;7.35;98.52
59337;BME280;45115;52.002;4.686;2023-04-08T03:37:38;102481.38;;;7.34;99.24
59337;BME280;45115;52.002;4.686;2023-04-08T03:40:13;102480.38;;;7.35;99.17
59337;BME280;45115;52.002;4.686;2023-04-08T03:42:41;102482.97;;;7.38;99.38
59337;BME280;45115;52.002;4.686;2023-04-08T03:45:08;102476.94;;;7.31;98.78
59337;BME280;45115;52.002;4.686;2023-04-08T03:47:35;102483.19;;;7.33;99.05
59337;BME280;45115;52.002;4.686;2023-04-08T03:50:01;102485.94;;;7.33;99.28
59337;BME280;45115;52.002;4.686;2023-04-08T03:52:31;102492.19;;;7.35;99.74
59337;BME280;45115;52.002;4.686;2023-04-08T03:54:58;102500.06;;;7.24;99.61
59337;BME280;45115;52.002;4.686;2023-04-08T03:57:25;102495.31;;;7.28;99.37
59337;BME280;45115;52.002;4.686;2023-04-08T03:59:53;102498.03;;;7.28;99.83
59337;BME280;45115;52.002;4.686;2023-04-08T04:02:19;102504.38;;;7.28;99.64
59337;BME280;45115;52.002;4.686;2023-04-08T04:04:46;102501.38;;;7.17;99.74
59337;BME280;45115;52.002;4.686;2023-04-08T04:07:13;102499.66;;;7.32;99.46
59337;BME280;45115;52.002;4.686;2023-04-08T04:09:39;102498.84;;;7.30;99.28
59337;BME280;45115;52.002;4.686;2023-04-08T04:12:06;102501.63;;;7.13;99.49
59337;BME280;45115;52.002;4.686;2023-04-08T04:14:33;102509.28;;;7.22;99.51
59337;BME280;45115;52.002;4.686;2023-04-08T04:17:02;102508.59;;;7.18;98.97
59337;BME280;45115;52.002;4.686;2023-04-08T04:19:29;102516.34;;;7.09;98.88
59337;BME280;45115;52.002;4.686;2023-04-08T04:21:56;102517.66;;;7.02;99.25
59337;BME280;45115;52.002;4.686;2023-04-08T04:24:23;102520.69;;;7.13;99.67
59337;BME280;45115;52.002;4.686;2023-04-08T04:26:52;102513.63;;;7.09;99.37
59337;BME280;45115;52.002;4.686;2023-04-08T04:29:19;102524.53;;;7.09;99.18
59337;BME280;45115;52.002;4.686;2023-04-08T04:31:45;102520.06;;;7.08;99.21
59337;BME280;45115;52.002;4.686;2023-04-08T04:34:16;102527.13;;;7.12;99.03
59337;BME280;45115;52.002;4.686;2023-04-08T04:36:42;102514.59;;;7.08;99.18
59337;BME280;45115;52.002;4.686;2023-04-08T04:39:13;102529.66;;;7.15;99.07
59337;BME280;45115;52.002;4.686;2023-04-08T04:41:40;102528.06;;;7.11;99.51
59337;BME280;45115;52.002;4.686;2023-04-08T04:44:09;102521.25;;;7.02;99.19
59337;BME280;45115;52.002;4.686;2023-04-08T04:46:35;102530.31;;;7.03;99.88
59337;BME280;45115;52.002;4.686;2023-04-08T04:49:02;102530.06;;;7.07;99.54
59337;BME280;45115;52.002;4.686;2023-04-08T04:51:31;102539.06;;;6.92;99.65
59337;BME280;45115;52.002;4.686;2023-04-08T04:53:58;102543.78;;;7.06;99.46
59337;BME280;45115;52.002;4.686;2023-04-08T04:56:24;102534.56;;;6.91;98.61
59337;BME280;45115;52.002;4.686;2023-04-08T04:58:53;102543.44;;;6.95;98.60
59337;BME280;45115;52.002;4.686;2023-04-08T05:01:20;102549.16;;;6.90;98.24
59337;BME280;45115;52.002;4.686;2023-04-08T05:03:46;102560.69;;;6.78;99.22
59337;BME280;45115;52.002;4.686;2023-04-08T05:06:13;102554.72;;;6.70;99.43
59337;BME280;45115;52.002;4.686;2023-04-08T05:08:41;102544.34;;;6.78;99.53
59337;BME280;45115;52.002;4.686;2023-04-08T05:11:08;102555.88;;;6.83;99.60
59337;BME280;45115;52.002;4.686;2023-04-08T05:13:35;102556.25;;;6.75;99.59
59337;BME280;45115;52.002;4.686;2023-04-08T05:16:01;102558.69;;;6.82;100.00
59337;BME280;45115;52.002;4.686;2023-04-08T05:18:28;102555.72;;;6.86;100.00
59337;BME280;45115;52.002;4.686;2023-04-08T05:20:55;102561.03;;;6.89;99.37
59337;BME280;45115;52.002;4.686;2023-04-08T05:23:21;102561.41;;;6.99;99.52
59337;BME280;45115;52.002;4.686;2023-04-08T05:25:49;102563.50;;;6.94;99.64
59337;BME280;45115;52.002;4.686;2023-04-08T05:28:16;102568.22;;;6.90;100.00
59337;BME280;45115;52.002;4.686;2023-04-08T05:30:47;102558.19;;;7.08;99.03
59337;BME280;45115;52.002;4.686;2023-04-08T05:33:17;102573.09;;;7.01;99.26
59337;BME280;45115;52.002;4.686;2023-04-08T05:35:47;102557.97;;;6.95;99.48
59337;BME280;45115;52.002;4.686;2023-04-08T05:38:14;102566.84;;;6.99;99.41
59337;BME280;45115;52.002;4.686;2023-04-08T05:40:41;102572.81;;;7.07;99.32
59337;BME280;45115;52.002;4.686;2023-04-08T05:43:09;102572.00;;;7.05;99.75
59337;BME280;45115;52.002;4.686;2023-04-08T05:45:36;102585.38;;;7.09;99.92
59337;BME280;45115;52.002;4.686;2023-04-08T05:48:02;102582.16;;;7.18;99.18
59337;BME280;45115;52.002;4.686;2023-04-08T05:50:29;102585.28;;;7.11;99.12
59337;BME280;45115;52.002;4.686;2023-04-08T05:52:56;102593.94;;;7.02;99.85
59337;BME280;45115;52.002;4.686;2023-04-08T05:55:23;102588.34;;;7.05;100.00
59337;BME280;45115;52.002;4.686;2023-04-08T05:57:49;102595.16;;;7.13;99.38
59337;BME280;45115;52.002;4.686;2023-04-08T06:00:17;102593.88;;;7.20;99.12
59337;BME280;45115;52.002;4.686;2023-04-08T06:02:45;102599.06;;;7.25;98.98
59337;BME280;45115;52.002;4.686;2023-04-08T06:05:12;102597.69;;;7.16;98.86
59337;BME280;45115;52.002;4.686;2023-04-08T06:07:39;102595.31;;;7.10;99.70
59337;BME280;45115;52.002;4.686;2023-04-08T06:10:07;102603.41;;;7.12;99.81
59337;BME280;45115;52.002;4.686;2023-04-08T06:12:34;102601.88;;;7.06;100.00
59337;BME280;45115;52.002;4.686;2023-04-08T06:15:01;102605.31;;;7.10;100.00
59337;BME280;45115;52.002;4.686;2023-04-08T06:17:32;102603.72;;;7.06;100.00
59337;BME280;45115;52.002;4.686;2023-04-08T06:20:01;102606.78;;;7.17;100.00
59337;BME280;45115;52.002;4.686;2023-04-08T06:22:28;102612.22;;;7.34;99.95
59337;BME280;45115;52.002;4.686;2023-04-08T06:24:54;102611.09;;;7.38;99.51
59337;BME280;45115;52.002;4.686;2023-04-08T06:27:21;102613.47;;;7.44;99.41
59337;BME280;45115;52.002;4.686;2023-04-08T06:29:48;102607.06;;;7.45;99.14
59337;BME280;45115;52.002;4.686;2023-04-08T06:32:15;102631.19;;;7.52;98.39
59337;BME280;45115;52.002;4.686;2023-04-08T06:34:45;102615.47;;;7.57;97.56
59337;BME280;45115;52.002;4.686;2023-04-08T06:37:17;102635.66;;;7.70;97.29
59337;BME280;45115;52.002;4.686;2023-04-08T06:39:45;102631.72;;;7.76;97.25
59337;BME280;45115;52.002;4.686;2023-04-08T06:42:20;102640.78;;;7.76;97.28
59337;BME280;45115;52.002;4.686;2023-04-08T06:45:00;102646.88;;;7.81;97.58
59337;BME280;45115;52.002;4.686;2023-04-08T06:47:26;102650.31;;;7.85;97.92
59337;BME280;45115;52.002;4.686;2023-04-08T06:49:54;102647.00;;;7.96;97.52
59337;BME280;45115;52.002;4.686;2023-04-08T06:52:21;102651.47;;;7.97;97.28
59337;BME280;45115;52.002;4.686;2023-04-08T06:54:51;102651.47;;;7.97;97.02
59337;BME280;45115;52.002;4.686;2023-04-08T06:57:18;102650.88;;;8.07;97.53
59337;BME280;45115;52.002;4.686;2023-04-08T06:59:45;102649.84;;;8.10;97.09
59337;BME280;45115;52.002;4.686;2023-04-08T07:02:12;102651.97;;;8.20;96.57
59337;BME280;45115;52.002;4.686;2023-04-08T07:04:40;102657.25;;;8.23;96.21
59337;BME280;45115;52.002;4.686;2023-04-08T07:07:14;102665.44;;;8.23;96.09
59337;BME280;45115;52.002;4.686;2023-04-08T07:09:42;102663.94;;;8.18;95.48
59337;BME280;45115;52.002;4.686;2023-04-08T07:12:10;102673.09;;;8.17;96.30
59337;BME280;45115;52.002;4.686;2023-04-08T07:14:39;102667.28;;;8.23;96.45
59337;BME280;45115;52.002;4.686;2023-04-08T07:17:05;102665.94;;;8.31;95.64
59337;BME280;45115;52.002;4.686;2023-04-08T07:19:32;102664.97;;;8.32;96.55
59337;BME280;45115;52.002;4.686;2023-04-08T07:22:01;102672.97;;;8.35;96.12
59337;BME280;45115;52.002;4.686;2023-04-08T07:24:32;102671.66;;;8.27;96.88
59337;BME280;45115;52.002;4.686;2023-04-08T07:26:59;102675.81;;;8.34;96.66
59337;BME280;45115;52.002;4.686;2023-04-08T07:29:26;102685.06;;;8.47;95.70
59337;BME280;45115;52.002;4.686;2023-04-08T07:31:53;102682.69;;;8.56;94.70
59337;BME280;45115;52.002;4.686;2023-04-08T07:34:20;102681.28;;;8.49;94.45
59337;BME280;45115;52.002;4.686;2023-04-08T07:36:46;102681.75;;;8.73;93.52
59337;BME280;45115;52.002;4.686;2023-04-08T07:39:13;102692.03;;;8.68;92.24
59337;BME280;45115;52.002;4.686;2023-04-08T07:41:41;102688.69;;;8.78;93.10
59337;BME280;45115;52.002;4.686;2023-04-08T07:44:07;102689.47;;;8.65;93.08
59337;BME280;45115;52.002;4.686;2023-04-08T07:46:36;102687.03;;;8.60;92.84
59337;BME280;45115;52.002;4.686;2023-04-08T07:49:02;102692.91;;;8.68;93.18
59337;BME280;45115;52.002;4.686;2023-04-08T07:51:29;102697.47;;;8.52;92.96
59337;BME280;45115;52.002;4.686;2023-04-08T07:53:56;102698.03;;;8.59;92.51
59337;BME280;45115;52.002;4.686;2023-04-08T07:56:22;102700.91;;;8.56;92.23
59337;BME280;45115;52.002;4.686;2023-04-08T07:58:50;102688.69;;;8.63;92.19
59337;BME280;45115;52.002;4.686;2023-04-08T08:01:22;102701.28;;;8.65;92.49
59337;BME280;45115;52.002;4.686;2023-04-08T08:03:49;102706.06;;;8.62;92.71
59337;BME280;45115;52.002;4.686;2023-04-08T08:06:16;102705.44;;;8.57;94.09
59337;BME280;45115;52.002;4.686;2023-04-08T08:08:48;102708.69;;;8.79;91.84
59337;BME280;45115;52.002;4.686;2023-04-08T08:11:16;102712.22;;;8.96;91.37
59337;BME280;45115;52.002;4.686;2023-04-08T08:13:43;102709.09;;;9.34;90.48
59337;BME280;45115;52.002;4.686;2023-04-08T08:16:14;102711.44;;;9.40;90.16
59337;BME280;45115;52.002;4.686;2023-04-08T08:18:51;102716.44;;;9.47;88.08
59337;BME280;45115;52.002;4.686;2023-04-08T08:21:18;102718.28;;;9.47;88.06
59337;BME280;45115;52.002;4.686;2023-04-08T08:23:45;102718.97;;;9.80;86.79
59337;BME280;45115;52.002;4.686;2023-04-08T08:26:11;102713.41;;;10.11;84.19
59337;BME280;45115;52.002;4.686;2023-04-08T08:28:38;102715.66;;;10.19;83.45
59337;BME280;45115;52.002;4.686;2023-04-08T08:31:05;102721.13;;;10.47;83.15
59337;BME280;45115;52.002;4.686;2023-04-08T08:33:33;102725.34;;;10.38;81.12
59337;BME280;45115;52.002;4.686;2023-04-08T08:36:00;102720.66;;;10.54;81.13
59337;BME280;45115;52.002;4.686;2023-04-08T08:38:28;102724.44;;;10.52;81.07
59337;BME280;45115;52.002;4.686;2023-04-08T08:40:56;102727.38;;;10.77;81.60
59337;BME280;45115;52.002;4.686;2023-04-08T08:43:23;102724.94;;;10.58;80.93
59337;BME280;45115;52.002;4.686;2023-04-08T08:45:50;102747.84;;;9.99;83.80
59337;BME280;45115;52.002;4.686;2023-04-08T08:48:17;102738.06;;;10.25;82.85
59337;BME280;45115;52.002;4.686;2023-04-08T08:50:49;102738.84;;;11.10;82.89
59337;BME280;45115;52.002;4.686;2023-04-08T08:53:16;102739.03;;;11.60;77.52
59337;BME280;45115;52.002;4.686;2023-04-08T08:55:44;102738.84;;;11.63;76.66
59337;BME280;45115;52.002;4.686;2023-04-08T08:58:10;102731.38;;;11.65;74.67
59337;BME280;45115;52.002;4.686;2023-04-08T09:00:38;102736.19;;;12.01;73.98
59337;BME280;45115;52.002;4.686;2023-04-08T09:03:17;102729.50;;;12.30;72.64
59337;BME280;45115;52.002;4.686;2023-04-08T09:05:50;102721.78;;;11.46;75.38
59337;BME280;45115;52.002;4.686;2023-04-08T09:08:28;102730.97;;;10.91;76.77
59337;BME280;45115;52.002;4.686;2023-04-08T09:10:55;102733.84;;;11.02;77.14
59337;BME280;45115;52.002;4.686;2023-04-08T09:13:22;102740.09;;;11.18;75.57
59337;BME280;45115;52.002;4.686;2023-04-08T09:16:03;102735.97;;;12.04;73.67
59337;BME280;45115;52.002;4.686;2023-04-08T09:18:30;102733.78;;;12.21;76.16
59337;BME280;45115;52.002;4.686;2023-04-08T09:20:59;102739.28;;;12.21;71.93
59337;BME280;45115;52.002;4.686;2023-04-08T09:23:37;102741.78;;;11.99;72.31
59337;BME280;45115;52.002;4.686;2023-04-08T09:26:07;102749.91;;;12.01;72.40
59337;BME280;45115;52.002;4.686;2023-04-08T09:28:34;102741.94;;;12.10;73.15
59337;BME280;45115;52.002;4.686;2023-04-08T09:31:17;102733.75;;;12.09;72.80
59337;BME280;45115;52.002;4.686;2023-04-08T09:33:44;102735.88;;;12.30;71.55
59337;BME280;45115;52.002;4.686;2023-04-08T09:36:13;102733.47;;;12.26;71.24
59337;BME280;45115;52.002;4.686;2023-04-08T09:38:40;102735.31;;;12.13;71.28
59337;BME280;45115;52.002;4.686;2023-04-08T09:41:07;102741.25;;;11.94;71.75
59337;BME280;45115;52.002;4.686;2023-04-08T09:43:35;102741.13;;;11.96;73.07
59337;BME280;45115;52.002;4.686;2023-04-08T09:46:10;102741.25;;;11.94;73.04
59337;BME280;45115;52.002;4.686;2023-04-08T09:48:40;102749.81;;;12.02;72.79
59337;BME280;45115;52.002;4.686;2023-04-08T09:51:11;102749.00;;;11.88;71.28
59337;BME280;45115;52.002;4.686;2023-04-08T09:53:45;102741.72;;;11.74;72.24
59337;BME280;45115;52.002;4.686;2023-04-08T09:56:13;102747.28;;;11.99;73.96
59337;BME280;45115;52.002;4.686;2023-04-08T09:58:45;102743.44;;;12.02;71.43
59337;BME280;45115;52.002;4.686;2023-04-08T10:01:15;102739.94;;;12.00;72.41
59337;BME280;45115;52.002;4.686;2023-04-08T10:03:50;102734.78;;;12.20;73.09
59337;BME280;45115;52.002;4.686;2023-04-08T10:06:18;102739.50;;;12.18;71.25
59337;BME280;45115;52.002;4.686;2023-04-08T10:08:48;102733.13;;;12.30;72.73
59337;BME280;45115;52.002;4.686;2023-04-08T10:11:15;102737.63;;;12.57;72.74
59337;BME280;45115;52.002;4.686;2023-04-08T10:13:42;102731.69;;;12.63;71.16
59337;BME280;45115;52.002;4.686;2023-04-08T10:16:20;102728.28;;;12.59;70.54
59337;BME280;45115;52.002;4.686;2023-04-08T10:18:49;102735.09;;;12.66;70.30
59337;BME280;45115;52.002;4.686;2023-04-08T10:21:36;102731.06;;;12.83;70.43
59337;BME280;45115;52.002;4.686;2023-04-08T10:24:08;102735.75;;;12.70;63.24
59337;BME280;45115;52.002;4.686;2023-04-08T10:26:37;102737.69;;;12.80;62.40
59337;BME280;45115;52.002;4.686;2023-04-08T10:29:29;102733.63;;;13.22;62.46
59337;BME280;45115;52.002;4.686;2023-04-08T10:31:56;102729.97;;;12.85;61.00
59337;BME280;45115;52.002;4.686;2023-04-08T10:34:24;102735.06;;;12.79;60.20
59337;BME280;45115;52.002;4.686;2023-04-08T10:36:52;102730.81;;;13.11;60.04
59337;BME280;45115;52.002;4.686;2023-04-08T10:39:21;102732.31;;;13.27;58.02
59337;BME280;45115;52.002;4.686;2023-04-08T10:41:49;102725.50;;;13.20;57.78
59337;BME280;45115;52.002;4.686;2023-04-08T10:44:16;102730.66;;;13.25;57.17
59337;BME280;45115;52.002;4.686;2023-04-08T10:46:43;102733.41;;;13.25;58.78
59337;BME280;45115;52.002;4.686;2023-04-08T10:49:10;102734.69;;;13.08;59.04
59337;BME280;45115;52.002;4.686;2023-04-08T10:51:37;102728.56;;;13.52;59.03
59337;BME280;45115;52.002;4.686;2023-04-08T10:54:07;102719.97;;;13.68;58.46
59337;BME280;45115;52.002;4.686;2023-04-08T10:56:43;102722.09;;;13.75;56.44
59337;BME280;45115;52.002;4.686;2023-04-08T10:59:09;102717.34;;;13.66;53.96
59337;BME280;45115;52.002;4.686;2023-04-08T11:01:37;102727.78;;;13.50;55.36
59337;BME280;45115;52.002;4.686;2023-04-08T11:04:10;102725.25;;;13.47;54.83
59337;BME280;45115;52.002;4.686;2023-04-08T11:06:37;102719.59;;;13.72;56.21
59337;BME280;45115;52.002;4.686;2023-04-08T11:09:04;102715.97;;;13.72;54.02
59337;BME280;45115;52.002;4.686;2023-04-08T11:11:31;102724.00;;;14.20;55.45
59337;BME280;45115;52.002;4.686;2023-04-08T11:13:59;102710.91;;;14.57;55.33
59337;BME280;45115;52.002;4.686;2023-04-08T11:16:26;102716.53;;;14.33;53.65
59337;BME280;45115;52.002;4.686;2023-04-08T11:18:54;102716.56;;;13.99;54.50
59337;BME280;45115;52.002;4.686;2023-04-08T11:21:22;102718.81;;;14.05;54.62
59337;BME280;45115;52.002;4.686;2023-04-08T11:23:50;102708.59;;;14.18;54.76
59337;BME280;45115;52.002;4.686;2023-04-08T11:26:17;102717.31;;;14.46;54.66
59337;BME280;45115;52.002;4.686;2023-04-08T11:28:44;102712.56;;;14.14;54.26
59337;BME280;45115;52.002;4.686;2023-04-08T11:31:12;102714.16;;;14.51;53.09
59337;BME280;45115;52.002;4.686;2023-04-08T11:33:44;102711.66;;;14.48;52.76
59337;BME280;45115;52.002;4.686;2023-04-08T11:36:11;102710.50;;;14.84;53.08
59337;BME280;45115;52.002;4.686;2023-04-08T11:38:38;102709.53;;;14.51;49.80
59337;BME280;45115;52.002;4.686;2023-04-08T11:41:06;102706.88;;;14.72;52.92
59337;BME280;45115;52.002;4.686;2023-04-08T11:43:32;102708.88;;;14.81;50.65
59337;BME280;45115;52.002;4.686;2023-04-08T11:46:08;102705.88;;;14.84;53.93
59337;BME280;45115;52.002;4.686;2023-04-08T11:48:37;102702.63;;;14.79;51.44
59337;BME280;45115;52.002;4.686;2023-04-08T11:51:04;102701.13;;;14.53;49.25
59337;BME280;45115;52.002;4.686;2023-04-08T11:53:34;102704.34;;;14.80;51.02
59337;BME280;45115;52.002;4.686;2023-04-08T11:56:15;102702.97;;;14.97;45.78
59337;BME280;45115;52.002;4.686;2023-04-08T11:58:42;102696.75;;;15.26;46.96
59337;BME280;45115;52.002;4.686;2023-04-08T12:01:08;102695.88;;;15.26;45.95
59337;BME280;45115;52.002;4.686;2023-04-08T12:03:36;102701.25;;;15.27;45.97
59337;BME280;45115;52.002;4.686;2023-04-08T12:06:03;102704.63;;;14.88;43.69
59337;BME280;45115;52.002;4.686;2023-04-08T12:08:31;102705.38;;;14.79;46.23
59337;BME280;45115;52.002;4.686;2023-04-08T12:10:58;102705.94;;;15.05;45.39
59337;BME280;45115;52.002;4.686;2023-04-08T12:13:25;102698.28;;;15.19;45.81
59337;BME280;45115;52.002;4.686;2023-04-08T12:15:53;102700.69;;;15.13;45.39
59337;BME280;45115;52.002;4.686;2023-04-08T12:18:19;102697.63;;;15.27;43.84
59337;BME280;45115;52.002;4.686;2023-04-08T12:20:48;102696.34;;;15.31;42.78
59337;BME280;45115;52.002;4.686;2023-04-08T12:23:15;102692.19;;;15.47;45.43
59337;BME280;45115;52.002;4.686;2023-04-08T12:25:41;102699.09;;;15.31;42.44
59337;BME280;45115;52.002;4.686;2023-04-08T12:28:08;102696.34;;;15.31;42.59
59337;BME280;45115;52.002;4.686;2023-04-08T12:30:36;102704.31;;;15.56;42.75
59337;BME280;45115;52.002;4.686;2023-04-08T12:33:02;102699.38;;;15.71;40.99
59337;BME280;45115;52.002;4.686;2023-04-08T12:35:29;102697.09;;;15.96;41.08
59337;BME280;45115;52.002;4.686;2023-04-08T12:37:57;102688.44;;;16.10;40.52
59337;BME280;45115;52.002;4.686;2023-04-08T12:40:24;102704.00;;;15.70;40.97
59337;BME280;45115;52.002;4.686;2023-04-08T12:42:51;102700.91;;;15.63;41.24
59337;BME280;45115;52.002;4.686;2023-04-08T12:45:18;102700.78;;;15.65;40.46
59337;BME280;45115;52.002;4.686;2023-04-08T12:47:44;102700.31;;;15.60;42.05
59337;BME280;45115;52.002;4.686;2023-04-08T12:50:11;102693.88;;;15.59;39.69
59337;BME280;45115;52.002;4.686;2023-04-08T12:52:37;102696.66;;;15.80;42.15
59337;BME280;45115;52.002;4.686;2023-04-08T12:55:07;102689.41;;;15.79;41.29
59337;BME280;45115;52.002;4.686;2023-04-08T12:57:33;102692.91;;;15.81;39.96
59337;BME280;45115;52.002;4.686;2023-04-08T13:00:00;102690.78;;;16.15;39.99
59337;BME280;45115;52.002;4.686;2023-04-08T13:02:28;102694.78;;;15.81;39.76